createdAt,value
2022-11-10T00:01:14.887Z,53.25
2022-11-10T00:03:42.031Z,49.45
2022-11-10T00:06:12.149Z,55.70
2022-11-10T00:08:40.209Z,45.00
2022-11-10T00:11:10.415Z,52.03
2022-11-10T00:14:01.706Z,49.83
2022-11-10T00:16:48.091Z,48.60
2022-11-10T00:19:23.740Z,44.67
2022-11-10T00:21:50.907Z,52.28
2022-11-10T00:24:17.896Z,48.28
2022-11-10T00:26:46.051Z,45.45
2022-11-10T00:29:14.540Z,47.40
2022-11-10T00:31:44.090Z,44.63
2022-11-10T00:34:17.804Z,45.60
2022-11-10T00:36:46.772Z,46.03
2022-11-10T00:39:14.970Z,43.58
2022-11-10T00:41:42.625Z,43.97
2022-11-10T00:44:11.628Z,48.15
2022-11-10T00:46:44.790Z,50.13
2022-11-10T00:49:19.086Z,48.03
2022-11-10T00:52:02.597Z,47.78
2022-11-10T00:54:35.575Z,49.63
2022-11-10T00:57:02.569Z,52.78
2022-11-10T00:59:29.592Z,47.63
2022-11-10T01:01:56.572Z,50.85
2022-11-10T01:04:25.625Z,51.45
2022-11-10T01:06:53.202Z,51.65
2022-11-10T01:09:23.214Z,50.05
2022-11-10T01:11:56.336Z,44.28
2022-11-10T01:14:40.504Z,47.03
2022-11-10T01:17:08.411Z,51.38
2022-11-10T01:19:38.621Z,50.83
2022-11-10T01:22:06.826Z,53.17
2022-11-10T01:24:33.982Z,47.80
2022-11-10T01:27:00.960Z,45.58
2022-11-10T01:29:31.930Z,52.88
2022-11-10T01:32:05.145Z,48.92
2022-11-10T01:34:39.455Z,48.00
2022-11-10T01:37:17.102Z,44.95
2022-11-10T01:39:47.078Z,45.60
2022-11-10T01:42:15.250Z,49.97
2022-11-10T01:45:35.185Z,45.95
2022-11-10T01:48:06.991Z,44.13
2022-11-10T01:50:40.312Z,42.08
2022-11-10T01:53:25.346Z,45.72
2022-11-10T01:56:04.551Z,43.35
2022-11-10T01:59:10.260Z,42.83
2022-11-10T02:01:37.414Z,41.83
2022-11-10T02:04:17.076Z,47.40
2022-11-10T02:06:49.407Z,45.30
2022-11-10T02:09:22.685Z,42.25
2022-11-10T02:11:53.901Z,43.17
2022-11-10T02:14:54.906Z,44.38
2022-11-10T02:18:06.700Z,44.00
2022-11-10T02:21:23.326Z,46.92
2022-11-10T02:23:54.593Z,47.70
2022-11-10T02:27:22.004Z,44.00
2022-11-10T02:30:03.964Z,55.58
2022-11-10T02:32:33.089Z,57.08
2022-11-10T02:35:05.733Z,52.25
2022-11-10T02:37:48.053Z,52.20
2022-11-10T02:40:15.092Z,48.20
2022-11-10T02:42:52.740Z,47.90
2022-11-10T02:45:20.840Z,52.88
2022-11-10T02:47:47.968Z,44.17
2022-11-10T02:50:15.113Z,51.05
2022-11-10T02:52:42.150Z,53.55
2022-11-10T02:55:10.339Z,44.72
2022-11-10T02:58:02.565Z,43.40
2022-11-10T03:00:29.535Z,51.25
2022-11-10T03:03:05.436Z,52.90
2022-11-10T03:05:33.533Z,56.58
2022-11-10T03:08:03.068Z,60.22
2022-11-10T03:10:32.289Z,59.55
2022-11-10T03:13:06.126Z,60.42
2022-11-10T03:15:35.658Z,59.67
2022-11-10T03:18:05.829Z,58.67
2022-11-10T03:20:33.891Z,56.22
2022-11-10T03:23:06.331Z,60.83
2022-11-10T03:25:37.611Z,55.63
2022-11-10T03:28:11.388Z,51.22
2022-11-10T03:30:40.471Z,51.22
2022-11-10T03:33:14.435Z,51.88
2022-11-10T03:35:41.514Z,59.47
2022-11-10T03:38:36.074Z,60.95
2022-11-10T03:41:20.234Z,60.22
2022-11-10T03:43:49.963Z,57.72
2022-11-10T03:46:19.114Z,62.22
2022-11-10T03:48:52.999Z,56.10
2022-11-10T03:51:24.194Z,60.13
2022-11-10T03:53:56.295Z,62.33
2022-11-10T03:56:35.478Z,66.35
2022-11-10T03:59:03.713Z,63.35
2022-11-10T04:01:30.767Z,66.57
2022-11-10T04:03:58.850Z,61.13
2022-11-10T04:06:44.530Z,64.32
2022-11-10T04:09:11.722Z,67.03
2022-11-10T04:11:57.014Z,71.85
2022-11-10T04:14:48.389Z,65.18
2022-11-10T04:17:22.374Z,67.15
2022-11-10T04:19:55.295Z,71.90
2022-11-10T04:22:42.980Z,76.10
2022-11-10T04:25:10.117Z,72.43
2022-11-10T04:27:39.344Z,76.07
2022-11-10T04:30:09.372Z,74.72
2022-11-10T04:32:45.606Z,69.95
2022-11-10T04:35:14.807Z,73.82
2022-11-10T04:37:42.905Z,69.05
2022-11-10T04:40:11.435Z,66.13
2022-11-10T04:42:40.400Z,70.53
2022-11-10T04:45:08.646Z,75.75
2022-11-10T04:47:36.646Z,69.45
2022-11-10T04:50:13.193Z,66.22
2022-11-10T04:52:42.215Z,74.20
2022-11-10T04:55:44.814Z,75.80
2022-11-10T04:58:12.725Z,70.20
2022-11-10T05:00:52.029Z,71.78
2022-11-10T05:03:56.850Z,66.40
2022-11-10T05:06:54.262Z,73.10
2022-11-10T05:09:36.827Z,71.93
2022-11-10T05:12:39.904Z,65.63
2022-11-10T05:15:31.214Z,68.40
2022-11-10T05:18:17.886Z,70.63
2022-11-10T05:21:42.924Z,65.07
2022-11-10T05:27:31.318Z,63.50
2022-11-10T05:30:00.526Z,71.22
2022-11-10T05:32:37.277Z,67.07
2022-11-10T05:35:05.662Z,66.72
2022-11-10T05:37:33.902Z,67.40
2022-11-10T05:40:01.058Z,68.30
2022-11-10T05:42:28.100Z,69.15
2022-11-10T05:44:55.148Z,65.28
2022-11-10T05:47:36.233Z,69.57
2022-11-10T05:50:07.021Z,71.35
2022-11-10T05:52:58.312Z,71.43
2022-11-10T05:55:45.433Z,68.60
2022-11-10T05:59:07.321Z,73.25
2022-11-10T06:01:34.413Z,70.03
2022-11-10T06:04:25.690Z,64.45
2022-11-10T06:06:52.720Z,65.00
2022-11-10T06:09:41.731Z,63.72
2022-11-10T06:12:19.922Z,59.78
2022-11-10T06:15:03.207Z,64.75
2022-11-10T06:17:30.218Z,61.03
2022-11-10T06:20:11.879Z,62.65
2022-11-10T06:23:23.853Z,64.68
2022-11-10T06:25:57.113Z,62.70
2022-11-10T06:28:34.559Z,60.00
2022-11-10T06:31:25.277Z,65.47
2022-11-10T06:33:59.690Z,64.50
2022-11-10T06:36:42.033Z,61.80
2022-11-10T06:39:25.467Z,60.33
2022-11-10T06:41:54.639Z,64.07
2022-11-10T06:44:21.635Z,64.18
2022-11-10T06:46:54.715Z,55.53
2022-11-10T06:49:28.854Z,60.30
2022-11-10T06:52:11.650Z,61.40
2022-11-10T06:55:10.590Z,54.08
2022-11-10T06:57:47.211Z,51.35
2022-11-10T07:00:17.529Z,55.90
2022-11-10T07:03:06.604Z,52.65
2022-11-10T07:05:36.389Z,56.33
2022-11-10T07:08:16.779Z,54.80
2022-11-10T07:10:53.444Z,50.78
2022-11-10T07:13:24.913Z,48.35
2022-11-10T07:15:57.373Z,47.50
2022-11-10T07:18:29.469Z,53.10
2022-11-10T07:21:02.716Z,44.47
2022-11-10T07:23:36.930Z,46.08
2022-11-10T07:26:13.998Z,43.85
2022-11-10T07:28:43.068Z,46.72
2022-11-10T07:31:16.192Z,39.90
2022-11-10T07:34:08.096Z,43.42
2022-11-10T07:36:38.143Z,39.97
2022-11-10T07:39:19.379Z,38.65
2022-11-10T07:41:55.619Z,39.55
2022-11-10T07:44:24.633Z,37.45
2022-11-10T07:47:41.396Z,37.05
2022-11-10T07:50:34.803Z,38.38
2022-11-10T07:53:11.046Z,35.53
2022-11-10T07:55:58.006Z,36.38
2022-11-10T07:58:25.029Z,37.47
2022-11-10T08:00:52.839Z,35.42
2022-11-10T08:03:22.384Z,36.55
2022-11-10T08:05:57.376Z,35.08
2022-11-10T08:08:30.427Z,35.90
2022-11-10T08:10:59.283Z,32.20
2022-11-10T08:13:27.313Z,37.15
2022-11-10T08:15:59.964Z,36.95
2022-11-10T08:18:35.311Z,37.88
2022-11-10T08:21:06.939Z,29.63
2022-11-10T08:23:41.442Z,32.70
2022-11-10T08:26:09.660Z,33.55
2022-11-10T08:28:48.631Z,31.90
2022-11-10T08:31:17.674Z,32.15
2022-11-10T08:33:45.007Z,29.67
2022-11-10T08:36:12.064Z,28.95
2022-11-10T08:38:39.232Z,30.38
2022-11-10T08:41:11.344Z,26.42
2022-11-10T08:43:39.391Z,26.52
2022-11-10T08:46:07.356Z,30.55
2022-11-10T08:48:36.582Z,30.58
2022-11-10T08:51:14.591Z,30.02
2022-11-10T08:53:45.610Z,27.67
2022-11-10T08:56:12.988Z,29.67
2022-11-10T08:58:50.261Z,23.75
2022-11-10T09:01:20.280Z,24.77
2022-11-10T09:03:50.311Z,27.13
2022-11-10T09:06:23.297Z,30.58
2022-11-10T09:08:50.484Z,47.92
2022-11-10T09:11:17.665Z,60.15
2022-11-10T09:13:46.849Z,29.90
2022-11-10T09:16:14.086Z,28.65
2022-11-10T09:18:41.078Z,22.63
2022-11-10T09:21:12.307Z,22.95
2022-11-10T09:23:41.488Z,23.73
2022-11-10T09:26:12.739Z,17.13
2022-11-10T09:29:05.045Z,19.10
2022-11-10T09:31:31.959Z,16.45
2022-11-10T09:34:00.074Z,21.33
2022-11-10T09:36:29.238Z,20.50
2022-11-10T09:39:08.501Z,18.90
2022-11-10T09:41:40.769Z,15.10
2022-11-10T09:44:47.221Z,17.35
2022-11-10T09:48:01.425Z,17.83
2022-11-10T09:50:36.767Z,15.57
2022-11-10T09:53:10.737Z,17.08
2022-11-10T09:55:51.630Z,16.83
2022-11-10T09:58:24.212Z,15.50
2022-11-10T10:01:09.053Z,18.30
2022-11-10T10:03:40.700Z,16.60
2022-11-10T10:06:19.165Z,14.32
2022-11-10T10:09:27.021Z,13.90
2022-11-10T10:12:26.426Z,14.05
2022-11-10T10:15:26.980Z,12.15
2022-11-10T10:18:31.111Z,11.05
2022-11-10T10:21:31.863Z,14.75
2022-11-10T10:24:13.938Z,12.23
2022-11-10T10:26:52.722Z,9.90
2022-11-10T10:29:46.738Z,11.02
2022-11-10T10:32:20.078Z,10.13
2022-11-10T10:34:48.667Z,14.77
2022-11-10T10:37:32.101Z,9.77
2022-11-10T10:40:00.147Z,11.27
2022-11-10T10:42:38.098Z,8.98
2022-11-10T10:45:50.621Z,9.48
2022-11-10T10:48:29.318Z,10.85
2022-11-10T10:50:56.315Z,10.10
2022-11-10T10:53:25.358Z,9.73
2022-11-10T10:56:17.882Z,10.98
2022-11-10T10:58:59.345Z,12.48
2022-11-10T11:01:34.047Z,11.38
2022-11-10T11:04:06.134Z,9.88
2022-11-10T11:06:35.580Z,11.00
2022-11-10T11:09:18.097Z,11.27
2022-11-10T11:11:47.148Z,11.13
2022-11-10T11:14:27.144Z,12.50
2022-11-10T11:17:18.571Z,11.38
2022-11-10T11:19:45.870Z,11.38
2022-11-10T11:23:04.141Z,9.77
2022-11-10T11:25:38.591Z,11.45
2022-11-10T11:28:14.979Z,11.27
2022-11-10T11:31:16.166Z,9.38
2022-11-10T11:34:22.418Z,12.05
2022-11-10T11:37:05.311Z,11.75
2022-11-10T11:40:05.198Z,8.85
2022-11-10T11:42:59.874Z,12.98
2022-11-10T11:45:36.748Z,11.23
2022-11-10T11:48:25.773Z,8.70
2022-11-10T11:51:12.488Z,8.55
2022-11-10T11:54:37.148Z,9.75
2022-11-10T11:57:34.497Z,7.10
2022-11-10T12:00:14.026Z,7.50
2022-11-10T12:03:06.806Z,6.70
2022-11-10T12:05:52.467Z,9.32
2022-11-10T12:09:01.644Z,7.80
2022-11-10T12:11:45.057Z,8.32
2022-11-10T12:14:44.810Z,7.50
2022-11-10T12:17:35.792Z,6.30
2022-11-10T12:20:26.796Z,9.93
2022-11-10T12:23:34.431Z,8.90
2022-11-10T12:26:08.398Z,6.07
2022-11-10T12:28:42.952Z,5.43
2022-11-10T12:31:26.244Z,7.45
2022-11-10T12:34:22.465Z,8.15
2022-11-10T12:36:52.157Z,9.05
2022-11-10T12:39:42.120Z,10.65
2022-11-10T12:42:18.354Z,9.20
2022-11-10T12:45:00.046Z,11.45
2022-11-10T12:47:44.156Z,10.50
2022-11-10T12:50:27.506Z,7.40
2022-11-10T12:53:26.838Z,7.95
2022-11-10T12:56:00.234Z,8.63
2022-11-10T12:58:29.685Z,8.65
2022-11-10T13:01:02.997Z,7.80
2022-11-10T13:03:37.549Z,9.00
2022-11-10T13:06:07.616Z,9.15
2022-11-10T13:08:47.410Z,9.70
2022-11-10T13:11:14.418Z,7.80
2022-11-10T13:14:08.041Z,11.52
2022-11-10T13:16:41.672Z,11.98
2022-11-10T13:19:39.444Z,9.02
2022-11-10T13:22:10.976Z,10.95
2022-11-10T13:24:43.434Z,9.38
2022-11-10T13:27:32.740Z,7.70
2022-11-10T13:30:01.033Z,13.88
2022-11-10T13:32:34.966Z,10.55
2022-11-10T13:35:44.549Z,7.45
2022-11-10T13:38:39.525Z,9.18
2022-11-10T13:41:20.791Z,8.20
2022-11-10T13:43:55.349Z,8.27
2022-11-10T13:46:34.228Z,11.15
2022-11-10T13:49:27.090Z,9.13
2022-11-10T13:52:22.220Z,9.20
2022-11-10T13:55:24.332Z,8.52
2022-11-10T13:58:07.752Z,8.68
2022-11-10T14:00:36.601Z,9.80
2022-11-10T14:03:06.950Z,8.98
2022-11-10T14:05:38.888Z,7.55
2022-11-10T14:08:25.360Z,10.73
2022-11-10T14:11:00.413Z,11.15
2022-11-10T14:13:39.531Z,9.85
2022-11-10T14:16:26.887Z,10.07
2022-11-10T14:19:33.241Z,10.52
2022-11-10T14:22:07.818Z,13.75
2022-11-10T14:24:53.075Z,20.63
2022-11-10T14:27:28.527Z,35.88
2022-11-10T14:30:11.277Z,40.60
2022-11-10T14:32:40.449Z,48.25
2022-11-10T14:35:18.991Z,44.33
2022-11-10T14:37:57.413Z,37.03
2022-11-10T14:40:24.527Z,29.38
2022-11-10T14:42:53.717Z,24.48
2022-11-10T14:45:29.425Z,21.60
2022-11-10T14:48:04.262Z,31.05
2022-11-10T14:50:36.275Z,18.55
2022-11-10T14:53:12.635Z,15.55
2022-11-10T14:55:44.705Z,17.23
2022-11-10T14:58:46.455Z,19.52
2022-11-10T15:02:00.809Z,19.75
2022-11-10T15:05:26.947Z,18.90
2022-11-10T15:07:56.945Z,18.98
2022-11-10T15:10:27.663Z,13.27
2022-11-10T15:13:06.208Z,15.80
2022-11-10T15:15:34.235Z,16.92
2022-11-10T15:18:23.853Z,18.60
2022-11-10T15:21:19.894Z,18.65
2022-11-10T15:23:59.450Z,21.98
2022-11-10T15:26:30.163Z,32.22
2022-11-10T15:29:02.738Z,50.58
2022-11-10T15:31:33.722Z,47.95
2022-11-10T15:34:06.820Z,44.13
2022-11-10T15:36:39.939Z,48.00
2022-11-10T15:39:14.226Z,34.92
2022-11-10T15:41:46.827Z,37.05
2022-11-10T15:44:32.873Z,33.92
2022-11-10T15:46:59.974Z,28.30
2022-11-10T15:49:31.532Z,27.52
2022-11-10T15:52:06.188Z,27.17
2022-11-10T15:54:36.781Z,29.98
2022-11-10T15:57:14.164Z,26.90
2022-11-10T15:59:42.656Z,28.77
2022-11-10T16:02:20.150Z,32.97
2022-11-10T16:04:49.301Z,31.25
2022-11-10T16:07:18.156Z,29.70
2022-11-10T16:09:45.372Z,31.00
2022-11-10T16:12:22.810Z,30.02
2022-11-10T16:14:53.189Z,38.45
2022-11-10T16:17:23.266Z,43.38
2022-11-10T16:19:50.326Z,42.33
2022-11-10T16:22:19.905Z,39.83
2022-11-10T16:24:47.216Z,40.60
2022-11-10T16:27:17.160Z,36.22
2022-11-10T16:29:44.337Z,34.65
2022-11-10T16:32:12.566Z,33.30
2022-11-10T16:34:42.942Z,33.10
2022-11-10T16:37:12.975Z,30.05
2022-11-10T16:39:41.152Z,34.08
2022-11-10T16:42:10.325Z,37.70
2022-11-10T16:44:42.442Z,27.75
2022-11-10T16:47:20.862Z,26.77
2022-11-10T16:49:53.381Z,27.05
2022-11-10T16:52:21.809Z,21.52
2022-11-10T16:54:48.968Z,18.02
2022-11-10T16:57:18.144Z,18.80
2022-11-10T16:59:46.153Z,16.55
2022-11-10T17:02:26.400Z,18.02
2022-11-10T17:04:55.847Z,16.52
2022-11-10T17:07:26.429Z,15.65
2022-11-10T17:09:57.752Z,19.15
2022-11-10T17:12:24.838Z,18.48
2022-11-10T17:14:52.871Z,17.52
2022-11-10T17:17:26.728Z,18.20
2022-11-10T17:20:06.534Z,23.10
2022-11-10T17:22:36.657Z,16.50
2022-11-10T17:25:05.562Z,23.70
2022-11-10T17:27:37.723Z,17.75
2022-11-10T17:30:05.350Z,21.80
2022-11-10T17:33:03.053Z,18.20
2022-11-10T17:35:25.251Z,21.25
2022-11-10T17:37:55.949Z,22.27
2022-11-10T17:40:25.361Z,21.80
2022-11-10T17:42:54.565Z,44.75
2022-11-10T17:45:31.640Z,36.72
2022-11-10T17:48:23.412Z,27.00
2022-11-10T17:50:53.013Z,27.33
2022-11-10T17:53:29.280Z,26.85
2022-11-10T17:55:57.982Z,25.70
2022-11-10T17:58:26.066Z,25.55
2022-11-10T18:00:56.589Z,31.23
2022-11-10T18:03:25.482Z,28.90
2022-11-10T18:05:55.060Z,29.77
2022-11-10T18:08:22.070Z,25.35
2022-11-10T18:10:53.712Z,27.63
2022-11-10T18:13:27.365Z,22.83
2022-11-10T18:18:37.258Z,27.65
2022-11-10T18:21:06.571Z,25.92
2022-11-10T18:23:34.075Z,24.98
2022-11-10T18:26:09.110Z,30.13
2022-11-10T18:28:43.564Z,23.75
2022-11-10T18:31:13.571Z,29.25
2022-11-10T18:33:41.761Z,36.15
2022-11-10T18:36:09.631Z,33.70
2022-11-10T18:38:38.964Z,32.97
2022-11-10T18:41:25.915Z,29.70
2022-11-10T18:43:55.429Z,22.75
2022-11-10T18:46:30.696Z,25.17
2022-11-10T18:48:58.419Z,22.05
2022-11-10T18:51:27.554Z,28.20
2022-11-10T18:53:59.343Z,32.58
2022-11-10T18:56:28.889Z,24.30
2022-11-10T18:58:58.346Z,25.30
2022-11-10T19:01:42.327Z,29.55
2022-11-10T19:06:49.031Z,31.08
2022-11-10T19:09:16.601Z,38.42
2022-11-10T19:11:45.376Z,40.78
2022-11-10T19:14:14.990Z,44.45
2022-11-10T19:16:44.201Z,43.72
2022-11-10T19:19:12.810Z,38.20
2022-11-10T19:21:40.862Z,38.05
2022-11-10T19:24:28.046Z,40.28
2022-11-10T19:26:56.545Z,30.92
2022-11-10T19:29:24.042Z,36.30
2022-11-10T19:31:51.726Z,32.55
2022-11-10T19:34:22.195Z,31.85
2022-11-10T19:36:54.965Z,34.80
2022-11-10T19:39:23.890Z,34.47
2022-11-10T19:41:52.587Z,36.83
2022-11-10T19:44:20.925Z,35.40
2022-11-10T19:46:47.971Z,38.47
2022-11-10T19:52:23.649Z,33.42
2022-11-10T19:54:52.277Z,34.80
2022-11-10T19:57:19.889Z,39.35
2022-11-10T19:59:49.280Z,35.33
2022-11-10T20:02:19.359Z,32.80
2022-11-10T20:05:09.101Z,38.72
2022-11-10T20:07:55.094Z,41.25
2022-11-10T20:10:24.128Z,41.08
2022-11-10T20:12:51.484Z,37.17
2022-11-10T20:15:18.842Z,36.80
2022-11-10T20:17:46.402Z,39.25
2022-11-10T20:20:14.421Z,36.78
2022-11-10T20:22:41.867Z,31.08
2022-11-10T20:25:09.573Z,31.85
2022-11-10T20:27:36.836Z,28.10
2022-11-10T20:30:05.955Z,25.95
2022-11-10T20:32:42.331Z,24.48
2022-11-10T20:35:18.668Z,29.77
2022-11-10T20:37:45.976Z,27.38
2022-11-10T20:40:42.374Z,24.88
2022-11-10T20:43:02.800Z,24.35
2022-11-10T20:45:39.314Z,26.95
2022-11-10T20:48:16.637Z,29.42
2022-11-10T20:50:44.480Z,27.08
2022-11-10T20:53:12.013Z,26.95
2022-11-10T20:55:58.954Z,24.38
2022-11-10T20:58:26.734Z,25.27
2022-11-10T21:01:04.505Z,27.65
2022-11-10T21:03:38.381Z,25.73
2022-11-10T21:06:08.283Z,25.23
2022-11-10T21:08:37.829Z,26.80
2022-11-10T21:11:47.961Z,28.45
2022-11-10T21:14:44.759Z,32.97
2022-11-10T21:17:18.680Z,24.40
2022-11-10T21:19:55.430Z,27.33
2022-11-10T21:22:28.783Z,25.67
2022-11-10T21:24:57.968Z,25.85
2022-11-10T21:27:29.110Z,29.33
2022-11-10T21:29:58.959Z,26.42
2022-11-10T21:32:33.459Z,26.40
2022-11-10T21:35:07.344Z,24.40
2022-11-10T21:37:35.462Z,29.05
2022-11-10T21:40:02.519Z,26.65
2022-11-10T21:42:35.847Z,26.38
2022-11-10T21:45:04.269Z,26.08
2022-11-10T21:47:31.240Z,31.73
2022-11-10T21:50:06.020Z,28.05
2022-11-10T21:52:43.215Z,31.08
2022-11-10T21:55:10.988Z,29.10
2022-11-10T21:57:58.227Z,30.50
2022-11-10T22:00:26.279Z,33.75
2022-11-10T22:02:58.773Z,31.88
2022-11-10T22:05:28.651Z,29.77
2022-11-10T22:07:56.754Z,30.80
2022-11-10T22:10:47.343Z,30.08
2022-11-10T22:13:44.732Z,33.03
2022-11-10T22:17:02.547Z,31.67
2022-11-10T22:19:29.822Z,29.83
2022-11-10T22:22:03.994Z,30.17
2022-11-10T22:24:37.377Z,36.75
2022-11-10T22:27:13.682Z,34.65
2022-11-10T22:29:40.792Z,29.52
2022-11-10T22:32:10.001Z,34.38
2022-11-10T22:34:38.175Z,36.47
2022-11-10T22:37:14.243Z,34.17
2022-11-10T22:40:05.779Z,35.58
2022-11-10T22:43:00.240Z,33.35
2022-11-10T22:45:35.304Z,32.20
2022-11-10T22:48:27.008Z,35.03
2022-11-10T22:50:57.695Z,37.08
2022-11-10T22:53:39.027Z,35.83
2022-11-10T22:56:06.309Z,31.15
2022-11-10T22:58:34.390Z,32.65
2022-11-10T23:01:09.505Z,37.90
2022-11-10T23:03:38.906Z,32.35
2022-11-10T23:06:09.123Z,34.28
2022-11-10T23:08:38.321Z,36.30
2022-11-10T23:11:12.801Z,30.92
2022-11-10T23:13:44.022Z,30.30
2022-11-10T23:16:14.882Z,33.53
2022-11-10T23:18:45.467Z,31.55
2022-11-10T23:21:15.412Z,34.88
2022-11-10T23:23:49.401Z,33.50
2022-11-10T23:26:23.388Z,38.53
2022-11-10T23:28:53.661Z,40.35
2022-11-10T23:31:23.596Z,44.10
2022-11-10T23:33:55.745Z,36.78
2022-11-10T23:36:25.061Z,38.05
2022-11-10T23:38:58.532Z,34.63
2022-11-10T23:41:31.819Z,35.58
2022-11-10T23:44:08.823Z,33.47
2022-11-10T23:46:40.882Z,30.10
2022-11-10T23:49:07.910Z,35.60
2022-11-10T23:51:37.117Z,37.10
2022-11-10T23:54:13.348Z,35.60
2022-11-10T23:56:46.332Z,37.55
2022-11-10T23:59:20.330Z,38.80
